← Previous June 18, 2024 8:08 AM Next →

FTUS43 KDMX 181727
TAFFOD
TAF
KFOD 181727Z 1818/1918 19021G28KT P6SM BKN025 OVC040
     FM190000 20014G23KT 6SM -SHRA BR VCTS BKN035CB
     FM190200 25012KT 5SM -SHRA BR VCTS SCT025 OVC035CB
     FM190700 33008KT P6SM VCSH OVC013
     FM191300 02010KT P6SM -SHRA OVC025=